KFKN/FKN METAR and TAF weather

Enter ICAO airport designator
Station Type Date Time Source
KFKN METAR 2019/02/17 08:15 UTC NOAA

KFKN 170815Z AUTO 34003KT 10SM CLR M01/M01 A3005 RMK AO2 T10071010


Station Type Date Time Source
KFKN Decoded METAR 2019/02/17 08:15 UTC NOAA

Franklin / J B Rose, VA, United States (KFKN) 36-42N 076-54W
Feb 17, 2019 - 03:15 AM EST / 2019.02.17 0815 UTC
Wind: from the NNW (340 degrees) at 3 MPH (3 KT):0
Visibility: 10 mile(s):0
Sky conditions: clear
Temperature: 30.7 F (-0.7 C)
Dew Point: 30.2 F (-1.0 C)
Relative Humidity: 97%
Pressure (altimeter): 30.05 in. Hg (1017 hPa)
ob: KFKN 170815Z AUTO 34003KT 10SM CLR M01/M01 A3005 RMK AO2 T10071010
cycle: 8

Station Type Date Time Source
KFKN TAF UTC NOAA

Error!


Example: see airport list